Terminal Aerodrome Forecast
Issued by NWS Wilmington, OH

Current Version | Previous Version | Text Only | Print | Product List | Glossary Off
Versions: 1 2 3 4 5 6 7 8 9 10 11 12 13 14 15 16 17 18 19 20 21 22 23 24

000
FTUS41 KILN 022130 AAB
TAFILN
TAF AMD
KILN 022130Z 0222/0318 24006KT P6SM VCTS BKN040CB
     FM030000 VRB03KT P6SM FEW040
     FM030700 00000KT 4SM BR FEW040
      TEMPO 0309/0311 1SM BR
     FM031400 29006KT P6SM SCT040=

USA.gov is the U.S. government's official web portal to all federal, state and local government web resources and services.